Flight Track Log - Related Links

Times and Time Zones

All times are in EDT time to prevent confusion due to time zone crossing. See the AAL1459 flight status page for this flight to view local times or setup timezone preferences in your user account.

Time Position Orientation Groundspeed Altitude Reporting Facility
EDT Latitude Longitude Course Direction KTS MPH feet Rate Location/Type
Sat 02:16:52 PM 42.3640 -70.9670 78° East 163 188 1,000  Level FlightAware ADS-B
Sat 02:17:22 PM 42.3700 -70.9300 78° East 215 247 1,800 2,073 Climbing FlightAware ADS-B
Sat 02:17:47 PM 42.3760 -70.8950 77° East 240 276 2,900 2,727 Climbing FlightAware ADS-B
Sat 02:18:17 PM 42.3850 -70.8480 75° East 263 303 4,300 3,100 Climbing FlightAware ADS-B
Sat 02:18:47 PM 42.4010 -70.8040 64° Northeast 276 318 6,000 3,164 Climbing FlightAware ADS-B
Sat 02:19:12 PM 42.4260 -70.7780 38° Northeast 276 318 7,200 3,150 Climbing FlightAware ADS-B
Sat 02:19:27 PM 42.4460 -70.7680 20° North 280 322 8,100 3,467 Climbing FlightAware ADS-B
Sat 02:19:57 PM 42.4820 -70.7780 348° North 264 304 9,800 3,382 Climbing FlightAware ADS-B
Sat 02:20:22 PM 42.5090 -70.7970 333° Northwest 268 308 11,200 3,600 Climbing FlightAware ADS-B
Sat 02:20:37 PM 42.5220 -70.8160 313° West 261 300 12,200 2,300 Climbing FlightAware ADS-B
Sat 02:21:22 PM 42.5590 -70.8800 308° West 307 353 13,500 1,765 Climbing FlightAware ADS-B
Sat 02:22:02 PM 42.5950 -70.9450 307° West 324 373 14,700 2,175 Climbing FlightAware ADS-B
Sat 02:22:42 PM 42.6330 -71.0120 308° West 332 382 16,400 2,775 Climbing FlightAware ADS-B
Sat 02:23:22 PM 42.6710 -71.0800 307° West 332 382 18,400 2,824 Climbing FlightAware ADS-B
Sat 02:24:07 PM 42.7130 -71.1550 307° West 341 392 20,400 2,612 Climbing FlightAware ADS-B
Sat 02:24:47 PM 42.7510 -71.2220 308° West 342 394 22,100 1,835 Climbing FlightAware ADS-B
Sat 02:25:32 PM 42.7840 -71.3100 297° West 350 403 23,000 635 Climbing FlightAware ADS-B
Sat 02:26:12 PM 42.7930 -71.3940 278° West 351 404 23,000  Level FlightAware ADS-B
Sat 02:26:52 PM 42.8010 -71.4800 277° West 343 395 23,000 1,200 Level FlightAware ADS-B
Sat 02:27:37 PM 42.8100 -71.5800 277° West 323 372 24,700 2,133 Climbing FlightAware ADS-B
Sat 02:28:22 PM 42.8190 -71.6690 278° West 327 376 26,200 1,976 Climbing FlightAware ADS-B
Sat 02:29:02 PM 42.8270 -71.7510 278° West 330 380 27,500 1,875 Climbing FlightAware ADS-B
Sat 02:29:42 PM 42.8350 -71.8340 278° West 335 386 28,700 1,694 Climbing FlightAware ADS-B
Sat 02:30:27 PM 42.8440 -71.9320 277° West 338 389 29,900 1,624 Climbing FlightAware ADS-B
Sat 02:31:07 PM 42.8520 -72.0180 277° West 341 392 31,000 1,425 Climbing FlightAware ADS-B
Sat 02:31:47 PM 42.8600 -72.1010 278° West 345 397 31,800 1,200 Climbing FlightAware ADS-B
Sat 02:32:32 PM 42.8680 -72.1980 276° West 353 406 32,700 1,200 Climbing FlightAware ADS-B
Sat 02:33:12 PM 42.8760 -72.2870 277° West 356 410 33,500 1,482 Climbing FlightAware ADS-B
Sat 02:33:57 PM 42.8850 -72.3890 277° West 347 399 34,800 1,341 Climbing FlightAware ADS-B
Sat 02:34:37 PM 42.8930 -72.4750 277° West 351 404 35,400 750 Climbing FlightAware ADS-B
Sat 02:35:17 PM 42.9010 -72.5650 277° West 361 415 35,800 565 Climbing FlightAware ADS-B
Sat 02:36:02 PM 42.9100 -72.6640 277° West 370 426 36,200 565 Climbing FlightAware ADS-B
Sat 02:36:42 PM 42.9180 -72.7580 277° West 377 434 36,600 706 Climbing FlightAware ADS-B
Sat 02:37:27 PM 42.9270 -72.8680 276° West 381 438 37,200 565 Climbing FlightAware ADS-B
Sat 02:38:07 PM 42.9340 -72.9540 276° West 382 440 37,400 150 Climbing FlightAware ADS-B
Sat 02:38:47 PM 42.9400 -73.0360 276° West 382 440 37,400  Level FlightAware ADS-B
Sat 02:39:27 PM 42.9460 -73.1170 276° West 382 440 37,400 424 Level FlightAware ADS-B
Sat 02:40:12 PM 42.9600 -73.2550 278° West 376 433 38,000 424 Climbing FlightAware ADS-B
Sat 02:40:52 PM 42.9670 -73.3460 276° West 376 433 38,000  Level FlightAware ADS-B
Sat 02:41:37 PM 42.9740 -73.4430 276° West 376 433 38,000  Level FlightAware ADS-B
Sat 02:42:27 PM 42.9840 -73.5600 277° West 376 433 38,000  Level FlightAware ADS-B
Sat 02:43:17 PM 42.9910 -73.6610 275° West 376 433 38,000  Level FlightAware ADS-B
Sat 02:43:57 PM 42.9970 -73.7410 276° West 376 433 38,000  Level FlightAware ADS-B
Sat 02:44:42 PM 43.0090 -73.8940 276° West 375 432 38,000  Level FlightAware ADS-B
Sat 02:45:22 PM 43.0160 -73.9820 276° West 376 433 38,000  Level FlightAware ADS-B
Sat 02:45:57 PM 43.0210 -74.0610 275° West 376 433 38,000  Level FlightAware ADS-B
Sat 02:46:47 PM 43.0310 -74.1900 276° West 379 436 38,000  Level FlightAware ADS-B
Sat 02:47:22 PM 43.0370 -74.2710 276° West 380 437 38,000  Level FlightAware ADS-B
Sat 02:48:07 PM 43.0430 -74.3670 275° West 380 437 38,000  Level FlightAware ADS-B
Sat 02:48:47 PM 43.0510 -74.4570 277° West 382 440 38,000  Level FlightAware ADS-B
Sat 02:49:32 PM 43.0590 -74.5730 275° West 385 443 38,000  Level FlightAware ADS-B
Sat 02:50:12 PM 43.0650 -74.6690 275° West 386 444 38,000  Level FlightAware ADS-B
Sat 02:50:57 PM 43.0730 -74.7800 276° West 387 445 38,000  Level FlightAware ADS-B
Sat 02:51:37 PM 43.0800 -74.8790 276° West 387 445 38,000  Level FlightAware ADS-B
Sat 02:52:22 PM 43.0870 -74.9860 275° West 387 445 38,000  Level FlightAware ADS-B
Sat 02:53:02 PM 43.0930 -75.0840 275° West 386 444 38,000  Level FlightAware ADS-B
Sat 02:53:42 PM 43.0990 -75.1790 275° West 384 442 38,000  Level FlightAware ADS-B
Sat 02:54:27 PM 43.1060 -75.2890 275° West 381 438 38,000  Level FlightAware ADS-B
Sat 02:55:07 PM 43.1120 -75.3820 275° West 380 437 38,000  Level FlightAware ADS-B
Sat 02:55:52 PM 43.1190 -75.4920 275° West 378 435 38,000  Level FlightAware ADS-B
Sat 02:56:32 PM 43.1250 -75.5840 275° West 376 433 38,000  Level FlightAware ADS-B
Sat 02:57:12 PM 43.1300 -75.6810 274° West 373 429 38,000  Level FlightAware ADS-B
Sat 02:57:57 PM 43.1370 -75.7860 275° West 372 428 38,000  Level FlightAware ADS-B
Sat 02:58:37 PM 43.1420 -75.8770 274° West 372 428 38,000  Level FlightAware ADS-B
Sat 02:59:17 PM 43.1470 -75.9710 274° West 371 427 38,000  Level FlightAware ADS-B
Sat 03:00:02 PM 43.1530 -76.0780 274° West 369 425 38,000  Level FlightAware ADS-B
Sat 03:00:42 PM 43.1590 -76.1730 275° West 369 425 38,000  Level FlightAware ADS-B
Sat 03:01:27 PM 43.1610 -76.2770 272° West 373 429 38,000  Level FlightAware ADS-B
Sat 03:02:07 PM 43.1600 -76.3650 269° West 374 430 38,000  Level FlightAware ADS-B
Sat 03:02:52 PM 43.1600 -76.4780 270° West 373 429 38,000  Level FlightAware ADS-B
Sat 03:03:32 PM 43.1600 -76.5700 270° West 370 426 38,000  Level FlightAware ADS-B
Sat 03:04:12 PM 43.1600 -76.6630 270° West 368 423 38,000  Level FlightAware ADS-B
Sat 03:04:57 PM 43.1590 -76.7710 269° West 367 422 38,000  Level FlightAware ADS-B
Sat 03:05:37 PM 43.1590 -76.8620 270° West 366 421 38,000  Level FlightAware ADS-B
Sat 03:06:22 PM 43.1590 -76.9620 270° West 365 420 38,000  Level FlightAware ADS-B
Sat 03:07:02 PM 43.1580 -77.0570 269° West 365 420 38,000  Level FlightAware ADS-B
Sat 03:07:42 PM 43.1570 -77.1460 269° West 366 421 38,000  Level FlightAware ADS-B
Sat 03:08:27 PM 43.1560 -77.2540 269° West 369 425 38,000  Level FlightAware ADS-B
Sat 03:09:07 PM 43.1560 -77.3480 270° West 370 426 38,000  Level FlightAware ADS-B
Sat 03:09:52 PM 43.1550 -77.4540 269° West 371 427 38,000  Level FlightAware ADS-B
Sat 03:10:32 PM 43.1540 -77.5480 269° West 372 428 38,000  Level FlightAware ADS-B
Sat 03:11:12 PM 43.1530 -77.6400 269° West 373 429 38,000  Level FlightAware ADS-B
Sat 03:11:57 PM 43.1510 -77.7470 269° West 374 430 38,000  Level FlightAware ADS-B
Sat 03:12:37 PM 43.1500 -77.8390 269° West 374 430 38,000  Level FlightAware ADS-B
Sat 03:13:22 PM 43.1490 -77.9480 269° West 377 434 38,000  Level FlightAware ADS-B
Sat 03:14:02 PM 43.1470 -78.0420 268° West 381 438 38,000  Level FlightAware ADS-B
Sat 03:14:42 PM 43.1460 -78.1400 269° West 384 442 38,000  Level FlightAware ADS-B
Sat 03:15:27 PM 43.1440 -78.2500 269° West 387 445 38,000  Level FlightAware ADS-B
Sat 03:16:07 PM 43.1420 -78.3460 268° West 389 448 38,000  Level FlightAware ADS-B
Sat 03:16:52 PM 43.1400 -78.4570 269° West 393 452 38,000  Level FlightAware ADS-B
Sat 03:17:32 PM 43.1370 -78.5570 268° West 394 453 38,000  Level FlightAware ADS-B
Sat 03:18:12 PM 43.1340 -78.6580 268° West 396 456 38,000  Level FlightAware ADS-B
Sat 03:18:57 PM 43.1310 -78.7720 268° West 396 456 38,000  Level FlightAware ADS-B
Sat 03:19:37 PM 43.1280 -78.8680 268° West 394 453 38,000  Level FlightAware ADS-B
Sat 03:20:17 PM 43.1250 -78.9700 268° West 393 452 38,000  Level FlightAware ADS-B
Sat 03:21:02 PM 43.1220 -79.0820 268° West 393 452 38,000  Level FlightAware ADS-B
Sat 03:21:42 PM 43.1180 -79.1800 267° West 394 453 38,000  Level FlightAware ADS-B
Sat 03:22:27 PM 43.1150 -79.2910 268° West 394 453 38,000  Level FlightAware ADS-B
Sat 03:23:07 PM 43.1110 -79.3930 267° West 395 455 38,000  Level FlightAware ADS-B
Sat 03:23:47 PM 43.1080 -79.4920 268° West 395 455 38,000  Level FlightAware ADS-B
Sat 03:24:32 PM 43.1040 -79.6030 267° West 395 455 38,000  Level FlightAware ADS-B
Sat 03:25:12 PM 43.1000 -79.7030 267° West 395 455 38,000  Level FlightAware ADS-B
Sat 03:25:52 PM 43.0970 -79.8000 268° West 396 456 38,000  Level FlightAware ADS-B
Sat 03:26:37 PM 43.0920 -79.9300 267° West 398 458 38,000  Level FlightAware ADS-B
Sat 03:27:17 PM 43.0880 -80.0310 267° West 400 460 38,000  Level FlightAware ADS-B
Sat 03:28:02 PM 43.0830 -80.1420 267° West 404 465 38,000  Level FlightAware ADS-B
Sat 03:28:42 PM 43.0790 -80.2450 267° West 407 468 38,000  Level FlightAware ADS-B
Sat 03:29:27 PM 43.0740 -80.3630 267° West 409 471 38,000  Level FlightAware ADS-B
Sat 03:30:07 PM 43.0700 -80.4660 267° West 411 473 38,000  Level FlightAware ADS-B
Sat 03:30:47 PM 43.0650 -80.5690 266° West 413 475 38,000  Level FlightAware ADS-B
Sat 03:31:32 PM 43.0600 -80.6850 267° West 414 476 38,000  Level FlightAware ADS-B
Sat 03:32:12 PM 43.0550 -80.7900 266° West 414 476 38,000  Level FlightAware ADS-B
Sat 03:32:57 PM 43.0500 -80.8950 266° West 415 478 38,000  Level FlightAware ADS-B
Sat 03:33:37 PM 43.0450 -80.9960 266° West 413 475 38,000  Level FlightAware ADS-B
Sat 03:34:17 PM 43.0400 -81.0980 266° West 412 474 38,000  Level FlightAware ADS-B
Sat 03:35:02 PM 43.0370 -81.2180 268° West 406 467 38,000  Level FlightAware ADS-B
Sat 03:35:42 PM 43.0350 -81.3190 268° West 405 466 38,000  Level FlightAware ADS-B
Sat 03:36:22 PM 43.0330 -81.4170 268° West 404 465 38,000  Level FlightAware ADS-B
Sat 03:37:07 PM 43.0310 -81.5360 269° West 403 464 38,000  Level FlightAware ADS-B
Sat 03:37:47 PM 43.0290 -81.6390 269° West 402 463 38,000  Level FlightAware ADS-B
Sat 03:38:32 PM 43.0270 -81.7520 269° West 403 464 38,000  Level FlightAware ADS-B
Sat 03:39:12 PM 43.0250 -81.8480 268° West 403 464 38,000  Level FlightAware ADS-B
Sat 03:39:57 PM 43.0220 -81.9620 268° West 403 464 38,000  Level FlightAware ADS-B
Sat 03:40:37 PM 43.0200 -82.0790 269° West 404 465 38,000  Level FlightAware ADS-B
Sat 03:41:17 PM 43.0170 -82.1850 268° West 404 465 38,000  Level FlightAware ADS-B
Sat 03:42:02 PM 43.0140 -82.2950 268° West 407 468 38,000  Level FlightAware ADS-B
Sat 03:42:52 PM 43.0110 -82.4160 268° West 412 474 38,000  Level FlightAware ADS-B
Sat 03:43:37 PM 43.0080 -82.5240 268° West 415 478 38,000 -267 Level FlightAware ADS-B
Sat 03:44:22 PM 43.0040 -82.6440 267° West 411 473 37,600 -750 Descending FlightAware ADS-B
Sat 03:44:57 PM 43.0020 -82.7290 268° West 406 467 37,000 -988 Descending FlightAware ADS-B
Sat 03:45:47 PM 42.9980 -82.8570 268° West 413 475 36,200 -1,000 Descending FlightAware ADS-B
Sat 03:46:27 PM 42.9940 -82.9700 267° West 416 479 35,500 -960 Descending FlightAware ADS-B
Sat 03:47:02 PM 42.9920 -83.0600 268° West 419 482 35,000 -918 Descending FlightAware ADS-B
Sat 03:47:52 PM 42.9870 -83.1910 267° West 423 487 34,200 -988 Descending FlightAware ADS-B
Sat 03:48:27 PM 42.9840 -83.2930 268° West 426 490 33,600 -975 Descending FlightAware ADS-B
Sat 03:49:12 PM 42.9800 -83.4070 267° West 431 496 32,900 -918 Descending FlightAware ADS-B
Sat 03:49:52 PM 42.9760 -83.5150 267° West 434 499 32,300 -600 Descending FlightAware ADS-B
Sat 03:50:42 PM 42.9690 -83.6750 267° West 436 502 32,000 -200 Descending FlightAware ADS-B
Sat 03:51:22 PM 42.9640 -83.7780 266° West 435 501 32,000  Level FlightAware ADS-B
Sat 03:52:02 PM 42.9530 -83.8890 262° West 436 502 32,000  Level FlightAware ADS-B
Sat 03:52:47 PM 42.9410 -84.0170 263° West 437 503 32,000  Level FlightAware ADS-B
Sat 03:53:27 PM 42.9300 -84.1220 262° West 437 503 32,000  Level FlightAware ADS-B
Sat 03:54:12 PM 42.9180 -84.2480 263° West 436 502 32,000  Level FlightAware ADS-B
Sat 03:54:52 PM 42.9080 -84.3480 262° West 436 502 32,000  Level FlightAware ADS-B
Sat 03:55:32 PM 42.8960 -84.4630 262° West 434 499 32,000  Level FlightAware ADS-B
Sat 03:56:17 PM 42.8850 -84.5780 263° West 433 498 32,000  Level FlightAware ADS-B
Sat 03:56:57 PM 42.8730 -84.6940 262° West 432 497 32,000  Level FlightAware ADS-B
Sat 03:57:42 PM 42.8610 -84.8130 262° West 433 498 32,000  Level FlightAware ADS-B
Sat 03:58:22 PM 42.8490 -84.9240 262° West 434 499 32,000  Level FlightAware ADS-B
Sat 03:59:02 PM 42.8370 -85.0320 261° West 436 502 32,000  Level FlightAware ADS-B
Sat 03:59:47 PM 42.8240 -85.1560 262° West 435 501 32,000 -212 Level FlightAware ADS-B
Sat 04:00:27 PM 42.8130 -85.2560 262° West 420 483 31,700 -918 Descending FlightAware ADS-B
Sat 04:01:12 PM 42.8010 -85.3710 262° West 406 467 30,700 -1,624 Descending FlightAware ADS-B
Sat 04:01:52 PM 42.7890 -85.4720 261° West 395 455 29,400 -2,100 Descending FlightAware ADS-B
Sat 04:02:32 PM 42.7750 -85.5650 258° West 392 451 27,900 -2,329 Descending FlightAware ADS-B
Sat 04:03:17 PM 42.7550 -85.6760 256° West 388 447 26,100 -2,259 Descending FlightAware ADS-B
Sat 04:03:57 PM 42.7380 -85.7710 256° West 385 443 24,700 -1,875 Descending FlightAware ADS-B
Sat 04:04:37 PM 42.7210 -85.8650 256° West 378 435 23,600 -1,553 Descending FlightAware ADS-B
Sat 04:05:22 PM 42.7030 -85.9590 255° West 373 429 22,500 -1,553 Descending FlightAware ADS-B
Sat 04:06:02 PM 42.6850 -86.0580 256° West 374 430 21,400 -1,694 Descending FlightAware ADS-B
Sat 04:06:47 PM 42.6660 -86.1610 256° West 390 449 20,100 -988 Descending FlightAware ADS-B
Sat 04:07:27 PM 42.6490 -86.2560 256° West 389 448 20,000 -565 Descending FlightAware ADS-B
Sat 04:08:12 PM 42.6290 -86.3620 256° West 392 451 19,300 -1,341 Descending FlightAware ADS-B
Sat 04:08:52 PM 42.6110 -86.4560 255° West 378 435 18,100 -1,950 Descending FlightAware ADS-B
Sat 04:09:32 PM 42.5940 -86.5470 256° West 373 429 16,700 -1,835 Descending FlightAware ADS-B
Sat 04:10:17 PM 42.5750 -86.6500 256° West 373 429 15,500 -1,620 Descending FlightAware ADS-B
Sat 04:11:12 PM 42.5470 -86.7740 253° West 369 425 14,000 -1,832 Descending FlightAware ADS-B
Sat 04:11:52 PM 42.5240 -86.8610 250° West 365 420 12,600 -2,118 Descending FlightAware ADS-B
Sat 04:12:37 PM 42.4980 -86.9550 249° West 358 412 11,000 -1,800 Descending FlightAware ADS-B
Sat 04:13:22 PM 42.4730 -87.0470 250° West 340 391 9,900 -943 Descending FlightAware ADS-B
Sat 04:13:47 PM 42.4600 -87.0940 249° West 333 383 9,900  Level FlightAware ADS-B
Sat 04:14:17 PM 42.4450 -87.1480 249° West 299 344 9,900 -400 Level FlightAware ADS-B
Sat 04:14:47 PM 42.4300 -87.2030 250° West 288 331 9,500 -800 Descending FlightAware ADS-B
Sat 04:15:02 PM 42.4240 -87.2270 251° West 286 329 9,300 -900 Descending FlightAware ADS-B
Sat 04:15:27 PM 42.4080 -87.2640 240° Southwest 283 326 8,900 -600 Descending FlightAware ADS-B
Sat 04:15:42 PM 42.3970 -87.2890 239° Southwest 282 325 8,900  Level FlightAware ADS-B
Sat 04:16:07 PM 42.3810 -87.3250 239° Southwest 280 322 8,900  Level FlightAware ADS-B
Sat 04:16:37 PM 42.3600 -87.3710 238° Southwest 277 319 8,900  Level FlightAware ADS-B
Sat 04:17:07 PM 42.3400 -87.4150 238° Southwest 273 314 8,900 -218 Level FlightAware ADS-B
Sat 04:17:32 PM 42.3230 -87.4520 238° Southwest 276 318 8,700 -545 Descending FlightAware ADS-B
Sat 04:18:02 PM 42.3050 -87.4940 240° Southwest 274 315 8,400 -800 Descending FlightAware ADS-B
Sat 04:18:32 PM 42.2840 -87.5400 238° Southwest 271 312 7,900 -1,200 Descending FlightAware ADS-B
Sat 04:18:57 PM 42.2680 -87.5760 239° Southwest 269 310 7,300 -1,418 Descending FlightAware ADS-B
Sat 04:19:27 PM 42.2470 -87.6170 235° Southwest 266 306 6,600 -1,200 Descending FlightAware ADS-B
Sat 04:19:52 PM 42.2240 -87.6460 223° Southwest 264 304 6,200 -873 Descending FlightAware ADS-B
Sat 04:20:22 PM 42.1970 -87.6760 219° Southwest 260 299 5,800 -1,300 Descending FlightAware ADS-B
Sat 04:20:52 PM 42.1690 -87.7060 218° Southwest 264 304 4,900 -1,636 Descending FlightAware ADS-B
Sat 04:21:17 PM 42.1460 -87.7320 220° Southwest 253 291 4,300 -1,309 Descending FlightAware ADS-B
Sat 04:21:47 PM 42.1210 -87.7600 220° Southwest 225 259 3,700 -1,200 Descending FlightAware ADS-B
Sat 04:22:12 PM 42.1020 -87.7810 219° Southwest 201 231 3,200 -1,091 Descending FlightAware ADS-B
Sat 04:22:42 PM 42.0830 -87.8020 219° Southwest 177 204 2,700 -982 Descending FlightAware ADS-B
Sat 04:23:07 PM 42.0670 -87.8200 220° Southwest 172 198 2,300 -873 Descending FlightAware ADS-B
Sat 04:23:37 PM 42.0490 -87.8390 218° Southwest 147 169 1,900 -800 Descending FlightAware ADS-B
Sat 04:24:07 PM 42.0340 -87.8560 220° Southwest 149 171 1,500 -764 Descending FlightAware ADS-B
Sat 04:24:32 PM 42.0210 -87.8700 219° Southwest 152 175 1,200 -764 Descending FlightAware ADS-B
Sat 04:25:02 PM 42.0050 -87.8890 221° Southwest 147 169 800 -720 Descending FlightAware ADS-B
Sat 04:25:22 PM 41.9950 -87.8990 217° Southwest 145 167 600 -600 Descending FlightAware ADS-B

Login

Don't have an account? Register now (free) for customized features, flight alerts, and more!